sensor_id;sensor_type;location;lat;lon;timestamp;temperature;humidity
6788;DHT22;3431;47.966;10.268;2023-03-05T00:00:22;0.00;99.90
6788;DHT22;3431;47.966;10.268;2023-03-05T00:00:43;0.00;99.90
6788;DHT22;3431;47.966;10.268;2023-03-05T00:01:06;0.00;99.90
6788;DHT22;3431;47.966;10.268;2023-03-05T00:01:30;0.00;99.90
6788;DHT22;3431;47.966;10.268;2023-03-05T00:01:54;0.00;99.90
6788;DHT22;3431;47.966;10.268;2023-03-05T00:02:15;0.00;99.90
6788;DHT22;3431;47.966;10.268;2023-03-05T00:02:37;0.00;99.90
6788;DHT22;3431;47.966;10.268;2023-03-05T00:02:58;0.00;99.90
6788;DHT22;3431;47.966;10.268;2023-03-05T00:03:21;0.00;99.90
6788;DHT22;3431;47.966;10.268;2023-03-05T00:03:44;0.00;99.90
6788;DHT22;3431;47.966;10.268;2023-03-05T00:04:09;0.00;99.90
6788;DHT22;3431;47.966;10.268;2023-03-05T00:04:30;0.10;99.90
6788;DHT22;3431;47.966;10.268;2023-03-05T00:04:53;0.10;99.90
6788;DHT22;3431;47.966;10.268;2023-03-05T00:05:15;0.10;99.90
6788;DHT22;3431;47.966;10.268;2023-03-05T00:05:37;0.10;99.90
6788;DHT22;3431;47.966;10.268;2023-03-05T00:05:58;0.10;99.90
6788;DHT22;3431;47.966;10.268;2023-03-05T00:06:21;0.10;99.90
6788;DHT22;3431;47.966;10.268;2023-03-05T00:06:44;0.10;99.90
6788;DHT22;3431;47.966;10.268;2023-03-05T00:07:05;0.20;99.90
6788;DHT22;3431;47.966;10.268;2023-03-05T00:07:29;0.20;99.90
6788;DHT22;3431;47.966;10.268;2023-03-05T00:07:50;0.20;99.90
6788;DHT22;3431;47.966;10.268;2023-03-05T00:08:13;0.20;99.90
6788;DHT22;3431;47.966;10.268;2023-03-05T00:08:34;0.20;99.90
6788;DHT22;3431;47.966;10.268;2023-03-05T00:08:56;0.20;99.90
6788;DHT22;3431;47.966;10.268;2023-03-05T00:09:18;0.20;99.90
6788;DHT22;3431;47.966;10.268;2023-03-05T00:09:41;0.20;99.90
6788;DHT22;3431;47.966;10.268;2023-03-05T00:10:04;0.30;99.90
6788;DHT22;3431;47.966;10.268;2023-03-05T00:10:26;0.30;99.90
6788;DHT22;3431;47.966;10.268;2023-03-05T00:10:54;0.30;99.90
6788;DHT22;3431;47.966;10.268;2023-03-05T00:11:16;0.30;99.90
6788;DHT22;3431;47.966;10.268;2023-03-05T00:11:39;0.30;99.90
6788;DHT22;3431;47.966;10.268;2023-03-05T00:12:00;0.50;99.90
6788;DHT22;3431;47.966;10.268;2023-03-05T00:12:22;0.30;99.90
6788;DHT22;3431;47.966;10.268;2023-03-05T00:12:43;0.40;99.90
6788;DHT22;3431;47.966;10.268;2023-03-05T00:13:06;0.30;99.90
6788;DHT22;3431;47.966;10.268;2023-03-05T00:13:28;0.40;99.90
6788;DHT22;3431;47.966;10.268;2023-03-05T00:13:50;0.40;99.90
6788;DHT22;3431;47.966;10.268;2023-03-05T00:14:12;0.40;99.90
6788;DHT22;3431;47.966;10.268;2023-03-05T00:14:35;0.40;99.90
6788;DHT22;3431;47.966;10.268;2023-03-05T00:14:56;0.40;99.90
6788;DHT22;3431;47.966;10.268;2023-03-05T00:15:18;0.40;99.90
6788;DHT22;3431;47.966;10.268;2023-03-05T00:15:40;0.40;99.90
6788;DHT22;3431;47.966;10.268;2023-03-05T00:16:02;0.40;99.90
6788;DHT22;3431;47.966;10.268;2023-03-05T00:16:26;0.40;99.90
6788;DHT22;3431;47.966;10.268;2023-03-05T00:16:48;0.40;99.90
6788;DHT22;3431;47.966;10.268;2023-03-05T00:17:10;0.40;99.90
6788;DHT22;3431;47.966;10.268;2023-03-05T00:17:31;0.40;99.90
6788;DHT22;3431;47.966;10.268;2023-03-05T00:17:54;0.40;99.90
6788;DHT22;3431;47.966;10.268;2023-03-05T00:18:15;0.40;99.90
6788;DHT22;3431;47.966;10.268;2023-03-05T00:18:37;0.50;99.90
6788;DHT22;3431;47.966;10.268;2023-03-05T00:19:00;0.50;99.90
6788;DHT22;3431;47.966;10.268;2023-03-05T00:19:22;0.50;99.90
6788;DHT22;3431;47.966;10.268;2023-03-05T00:19:44;0.50;99.90
6788;DHT22;3431;47.966;10.268;2023-03-05T00:20:07;0.40;99.90
6788;DHT22;3431;47.966;10.268;2023-03-05T00:20:29;0.50;99.90
6788;DHT22;3431;47.966;10.268;2023-03-05T00:20:50;0.50;99.90
6788;DHT22;3431;47.966;10.268;2023-03-05T00:21:18;0.50;99.90
6788;DHT22;3431;47.966;10.268;2023-03-05T00:21:41;0.50;99.90
6788;DHT22;3431;47.966;10.268;2023-03-05T00:22:03;0.50;99.90
6788;DHT22;3431;47.966;10.268;2023-03-05T00:22:25;0.50;99.90
6788;DHT22;3431;47.966;10.268;2023-03-05T00:22:47;0.50;99.90
6788;DHT22;3431;47.966;10.268;2023-03-05T00:23:08;0.40;99.90
6788;DHT22;3431;47.966;10.268;2023-03-05T00:23:30;0.40;99.90
6788;DHT22;3431;47.966;10.268;2023-03-05T00:23:52;0.40;99.90
6788;DHT22;3431;47.966;10.268;2023-03-05T00:24:16;0.40;99.90
6788;DHT22;3431;47.966;10.268;2023-03-05T00:24:38;0.40;99.90
6788;DHT22;3431;47.966;10.268;2023-03-05T00:24:59;0.30;99.90
6788;DHT22;3431;47.966;10.268;2023-03-05T00:25:21;0.30;99.90
6788;DHT22;3431;47.966;10.268;2023-03-05T00:25:44;0.30;99.90
6788;DHT22;3431;47.966;10.268;2023-03-05T00:26:06;0.20;99.90
6788;DHT22;3431;47.966;10.268;2023-03-05T00:26:29;0.20;99.90
6788;DHT22;3431;47.966;10.268;2023-03-05T00:26:50;0.20;99.90
6788;DHT22;3431;47.966;10.268;2023-03-05T00:27:13;0.20;99.90
6788;DHT22;3431;47.966;10.268;2023-03-05T00:27:35;0.10;99.90
6788;DHT22;3431;47.966;10.268;2023-03-05T00:27:56;0.10;99.90
6788;DHT22;3431;47.966;10.268;2023-03-05T00:28:18;0.10;99.90
6788;DHT22;3431;47.966;10.268;2023-03-05T00:28:40;0.10;99.90
6788;DHT22;3431;47.966;10.268;2023-03-05T00:29:02;0.00;99.90
6788;DHT22;3431;47.966;10.268;2023-03-05T00:29:25;0.30;99.90
6788;DHT22;3431;47.966;10.268;2023-03-05T00:29:48;0.00;99.90
6788;DHT22;3431;47.966;10.268;2023-03-05T00:30:11;0.00;99.90
6788;DHT22;3431;47.966;10.268;2023-03-05T00:30:33;-0.10;99.90
6788;DHT22;3431;47.966;10.268;2023-03-05T00:30:58;-0.10;99.90
6788;DHT22;3431;47.966;10.268;2023-03-05T00:31:22;-0.10;99.90
6788;DHT22;3431;47.966;10.268;2023-03-05T00:31:44;-0.10;99.90
6788;DHT22;3431;47.966;10.268;2023-03-05T00:32:06;-0.10;99.90
6788;DHT22;3431;47.966;10.268;2023-03-05T00:32:27;-0.10;99.90
6788;DHT22;3431;47.966;10.268;2023-03-05T00:32:50;-0.10;99.90
6788;DHT22;3431;47.966;10.268;2023-03-05T00:33:12;-0.20;99.90
6788;DHT22;3431;47.966;10.268;2023-03-05T00:33:34;-0.20;99.90
6788;DHT22;3431;47.966;10.268;2023-03-05T00:33:57;-0.20;99.90
6788;DHT22;3431;47.966;10.268;2023-03-05T00:34:21;-0.20;99.90
6788;DHT22;3431;47.966;10.268;2023-03-05T00:34:46;-0.20;99.90
6788;DHT22;3431;47.966;10.268;2023-03-05T00:35:09;-0.20;99.90
6788;DHT22;3431;47.966;10.268;2023-03-05T00:35:30;-0.20;99.90
6788;DHT22;3431;47.966;10.268;2023-03-05T00:35:52;-0.30;99.90
6788;DHT22;3431;47.966;10.268;2023-03-05T00:36:15;-0.30;99.90
6788;DHT22;3431;47.966;10.268;2023-03-05T00:36:38;-0.30;99.90
6788;DHT22;3431;47.966;10.268;2023-03-05T00:37:00;-0.30;99.90
6788;DHT22;3431;47.966;10.268;2023-03-05T00:37:23;-0.30;99.90
6788;DHT22;3431;47.966;10.268;2023-03-05T00:37:44;-0.30;99.90
6788;DHT22;3431;47.966;10.268;2023-03-05T00:38:06;-0.30;99.90
6788;DHT22;3431;47.966;10.268;2023-03-05T00:38:28;-0.30;99.90
6788;DHT22;3431;47.966;10.268;2023-03-05T00:38:49;-0.30;99.90
6788;DHT22;3431;47.966;10.268;2023-03-05T00:39:11;-0.30;99.90
6788;DHT22;3431;47.966;10.268;2023-03-05T00:39:34;-0.30;99.90
6788;DHT22;3431;47.966;10.268;2023-03-05T00:39:56;-0.20;99.90
6788;DHT22;3431;47.966;10.268;2023-03-05T00:40:18;-0.20;99.90
6788;DHT22;3431;47.966;10.268;2023-03-05T00:40:40;-0.20;99.90
6788;DHT22;3431;47.966;10.268;2023-03-05T00:41:03;-0.20;99.90
6788;DHT22;3431;47.966;10.268;2023-03-05T00:41:25;-0.20;99.90
6788;DHT22;3431;47.966;10.268;2023-03-05T00:41:46;-0.10;99.90
6788;DHT22;3431;47.966;10.268;2023-03-05T00:42:08;-0.10;99.90
6788;DHT22;3431;47.966;10.268;2023-03-05T00:42:30;-0.10;99.90
6788;DHT22;3431;47.966;10.268;2023-03-05T00:42:53;-0.20;99.90
6788;DHT22;3431;47.966;10.268;2023-03-05T00:43:15;-0.20;99.90
6788;DHT22;3431;47.966;10.268;2023-03-05T00:43:36;-0.10;99.90
6788;DHT22;3431;47.966;10.268;2023-03-05T00:43:58;-0.10;99.90
6788;DHT22;3431;47.966;10.268;2023-03-05T00:44:21;-0.10;99.90
6788;DHT22;3431;47.966;10.268;2023-03-05T00:44:44;-0.10;99.90
6788;DHT22;3431;47.966;10.268;2023-03-05T00:45:07;-0.10;99.90
6788;DHT22;3431;47.966;10.268;2023-03-05T00:45:29;-0.10;99.90
6788;DHT22;3431;47.966;10.268;2023-03-05T00:45:50;0.00;99.90
6788;DHT22;3431;47.966;10.268;2023-03-05T00:46:13;0.00;99.90
6788;DHT22;3431;47.966;10.268;2023-03-05T00:46:35;0.00;99.90
6788;DHT22;3431;47.966;10.268;2023-03-05T00:46:57;0.00;99.90
6788;DHT22;3431;47.966;10.268;2023-03-05T00:47:19;0.00;99.90
6788;DHT22;3431;47.966;10.268;2023-03-05T00:47:41;0.00;99.90
6788;DHT22;3431;47.966;10.268;2023-03-05T00:48:03;0.00;99.90
6788;DHT22;3431;47.966;10.268;2023-03-05T00:48:25;0.00;99.90
6788;DHT22;3431;47.966;10.268;2023-03-05T00:48:47;0.00;99.90
6788;DHT22;3431;47.966;10.268;2023-03-05T00:49:09;0.00;99.90
6788;DHT22;3431;47.966;10.268;2023-03-05T00:49:32;0.00;99.90
6788;DHT22;3431;47.966;10.268;2023-03-05T00:49:54;0.00;99.90
6788;DHT22;3431;47.966;10.268;2023-03-05T00:50:16;0.00;99.90
6788;DHT22;3431;47.966;10.268;2023-03-05T00:50:38;0.00;99.90
6788;DHT22;3431;47.966;10.268;2023-03-05T00:50:59;0.00;99.90
6788;DHT22;3431;47.966;10.268;2023-03-05T00:51:21;0.10;99.90
6788;DHT22;3431;47.966;10.268;2023-03-05T00:51:44;0.10;99.90
6788;DHT22;3431;47.966;10.268;2023-03-05T00:52:06;0.10;99.90
6788;DHT22;3431;47.966;10.268;2023-03-05T00:52:27;0.10;99.90
6788;DHT22;3431;47.966;10.268;2023-03-05T00:52:49;0.10;99.90
6788;DHT22;3431;47.966;10.268;2023-03-05T00:53:12;0.10;99.90
6788;DHT22;3431;47.966;10.268;2023-03-05T00:53:33;0.10;99.90
6788;DHT22;3431;47.966;10.268;2023-03-05T00:53:55;0.10;99.90
6788;DHT22;3431;47.966;10.268;2023-03-05T00:54:17;0.10;99.90
6788;DHT22;3431;47.966;10.268;2023-03-05T00:54:38;0.20;99.90
6788;DHT22;3431;47.966;10.268;2023-03-05T00:55:01;0.20;99.90
6788;DHT22;3431;47.966;10.268;2023-03-05T00:55:23;0.20;99.90
6788;DHT22;3431;47.966;10.268;2023-03-05T00:55:44;0.20;99.90
6788;DHT22;3431;47.966;10.268;2023-03-05T00:56:06;0.20;99.90
6788;DHT22;3431;47.966;10.268;2023-03-05T00:56:29;0.20;99.90
6788;DHT22;3431;47.966;10.268;2023-03-05T00:56:50;0.20;99.90
6788;DHT22;3431;47.966;10.268;2023-03-05T00:57:12;0.20;99.90
6788;DHT22;3431;47.966;10.268;2023-03-05T00:57:34;0.30;99.90
6788;DHT22;3431;47.966;10.268;2023-03-05T00:57:56;0.30;99.90
6788;DHT22;3431;47.966;10.268;2023-03-05T00:58:18;0.30;99.90
6788;DHT22;3431;47.966;10.268;2023-03-05T00:58:40;0.30;99.90
6788;DHT22;3431;47.966;10.268;2023-03-05T00:59:02;0.30;99.90
6788;DHT22;3431;47.966;10.268;2023-03-05T00:59:24;0.30;99.90
6788;DHT22;3431;47.966;10.268;2023-03-05T00:59:46;0.20;99.90
6788;DHT22;3431;47.966;10.268;2023-03-05T01:00:09;0.30;99.90
6788;DHT22;3431;47.966;10.268;2023-03-05T01:00:31;0.20;99.90
6788;DHT22;3431;47.966;10.268;2023-03-05T01:00:56;0.20;99.90
6788;DHT22;3431;47.966;10.268;2023-03-05T01:01:18;0.20;99.90
6788;DHT22;3431;47.966;10.268;2023-03-05T01:01:39;0.20;99.90
6788;DHT22;3431;47.966;10.268;2023-03-05T01:02:02;0.10;99.90
6788;DHT22;3431;47.966;10.268;2023-03-05T01:02:24;0.20;99.90
6788;DHT22;3431;47.966;10.268;2023-03-05T01:02:46;0.10;99.90
6788;DHT22;3431;47.966;10.268;2023-03-05T01:03:07;0.10;99.90
6788;DHT22;3431;47.966;10.268;2023-03-05T01:03:30;0.10;99.90
6788;DHT22;3431;47.966;10.268;2023-03-05T01:03:53;0.10;99.90
6788;DHT22;3431;47.966;10.268;2023-03-05T01:04:16;0.10;99.90
6788;DHT22;3431;47.966;10.268;2023-03-05T01:04:39;0.10;99.90
6788;DHT22;3431;47.966;10.268;2023-03-05T01:05:06;0.10;99.90
6788;DHT22;3431;47.966;10.268;2023-03-05T01:05:28;0.10;99.90
6788;DHT22;3431;47.966;10.268;2023-03-05T01:05:50;0.10;99.90
6788;DHT22;3431;47.966;10.268;2023-03-05T01:06:12;0.10;99.90
6788;DHT22;3431;47.966;10.268;2023-03-05T01:06:35;0.10;99.90
6788;DHT22;3431;47.966;10.268;2023-03-05T01:06:59;-0.30;99.90
6788;DHT22;3431;47.966;10.268;2023-03-05T01:07:20;0.10;99.90
6788;DHT22;3431;47.966;10.268;2023-03-05T01:07:42;0.10;99.90
6788;DHT22;3431;47.966;10.268;2023-03-05T01:08:04;0.10;99.90
6788;DHT22;3431;47.966;10.268;2023-03-05T01:08:27;0.10;99.90
6788;DHT22;3431;47.966;10.268;2023-03-05T01:08:49;0.00;99.90
6788;DHT22;3431;47.966;10.268;2023-03-05T01:09:10;0.00;99.90
6788;DHT22;3431;47.966;10.268;2023-03-05T01:09:32;0.00;99.90
6788;DHT22;3431;47.966;10.268;2023-03-05T01:09:54;0.00;99.90
6788;DHT22;3431;47.966;10.268;2023-03-05T01:10:16;0.00;99.90
6788;DHT22;3431;47.966;10.268;2023-03-05T01:10:38;0.00;99.90
6788;DHT22;3431;47.966;10.268;2023-03-05T01:11:00;0.00;99.90
6788;DHT22;3431;47.966;10.268;2023-03-05T01:11:21;0.00;99.90
6788;DHT22;3431;47.966;10.268;2023-03-05T01:11:44;0.00;99.90
6788;DHT22;3431;47.966;10.268;2023-03-05T01:12:06;0.00;99.90
6788;DHT22;3431;47.966;10.268;2023-03-05T01:12:28;0.00;99.90
6788;DHT22;3431;47.966;10.268;2023-03-05T01:12:49;0.00;99.90
6788;DHT22;3431;47.966;10.268;2023-03-05T01:13:11;0.00;99.90
6788;DHT22;3431;47.966;10.268;2023-03-05T01:13:34;0.00;99.90
6788;DHT22;3431;47.966;10.268;2023-03-05T01:13:56;0.00;99.90
6788;DHT22;3431;47.966;10.268;2023-03-05T01:14:18;0.00;99.90
6788;DHT22;3431;47.966;10.268;2023-03-05T01:14:42;0.00;99.90
6788;DHT22;3431;47.966;10.268;2023-03-05T01:15:05;0.00;99.90
6788;DHT22;3431;47.966;10.268;2023-03-05T01:15:27;0.10;99.90
6788;DHT22;3431;47.966;10.268;2023-03-05T01:15:48;0.10;99.90
6788;DHT22;3431;47.966;10.268;2023-03-05T01:16:11;0.10;99.90
6788;DHT22;3431;47.966;10.268;2023-03-05T01:16:33;0.10;99.90
6788;DHT22;3431;47.966;10.268;2023-03-05T01:16:54;0.10;99.90
6788;DHT22;3431;47.966;10.268;2023-03-05T01:17:16;0.10;99.90
6788;DHT22;3431;47.966;10.268;2023-03-05T01:17:39;0.10;99.90
6788;DHT22;3431;47.966;10.268;2023-03-05T01:18:00;0.10;99.90
6788;DHT22;3431;47.966;10.268;2023-03-05T01:18:22;0.20;99.90
6788;DHT22;3431;47.966;10.268;2023-03-05T01:18:43;0.20;99.90
6788;DHT22;3431;47.966;10.268;2023-03-05T01:19:06;0.20;99.90
6788;DHT22;3431;47.966;10.268;2023-03-05T01:19:28;0.20;99.90
6788;DHT22;3431;47.966;10.268;2023-03-05T01:19:51;0.20;99.90
6788;DHT22;3431;47.966;10.268;2023-03-05T01:20:14;0.20;99.90
6788;DHT22;3431;47.966;10.268;2023-03-05T01:20:36;0.20;99.90
6788;DHT22;3431;47.966;10.268;2023-03-05T01:20:58;0.20;99.90
6788;DHT22;3431;47.966;10.268;2023-03-05T01:21:20;0.30;99.90
6788;DHT22;3431;47.966;10.268;2023-03-05T01:21:42;0.30;99.90
6788;DHT22;3431;47.966;10.268;2023-03-05T01:22:05;0.30;99.90
6788;DHT22;3431;47.966;10.268;2023-03-05T01:22:26;0.30;99.90
6788;DHT22;3431;47.966;10.268;2023-03-05T01:22:48;0.30;99.90
6788;DHT22;3431;47.966;10.268;2023-03-05T01:23:10;0.30;99.90
6788;DHT22;3431;47.966;10.268;2023-03-05T01:23:32;0.30;99.90
6788;DHT22;3431;47.966;10.268;2023-03-05T01:23:57;0.30;99.90
6788;DHT22;3431;47.966;10.268;2023-03-05T01:24:19;0.40;99.90
6788;DHT22;3431;47.966;10.268;2023-03-05T01:24:41;0.30;99.90
6788;DHT22;3431;47.966;10.268;2023-03-05T01:25:04;0.30;99.90
6788;DHT22;3431;47.966;10.268;2023-03-05T01:25:26;0.30;99.90
6788;DHT22;3431;47.966;10.268;2023-03-05T01:25:52;0.30;99.90
6788;DHT22;3431;47.966;10.268;2023-03-05T01:26:14;0.30;99.90
6788;DHT22;3431;47.966;10.268;2023-03-05T01:26:36;0.40;99.90
6788;DHT22;3431;47.966;10.268;2023-03-05T01:26:58;0.40;99.90
6788;DHT22;3431;47.966;10.268;2023-03-05T01:27:19;0.40;99.90
6788;DHT22;3431;47.966;10.268;2023-03-05T01:27:41;0.40;99.90
6788;DHT22;3431;47.966;10.268;2023-03-05T01:28:03;0.40;99.90
6788;DHT22;3431;47.966;10.268;2023-03-05T01:28:27;0.40;99.90
6788;DHT22;3431;47.966;10.268;2023-03-05T01:28:48;0.40;99.90
6788;DHT22;3431;47.966;10.268;2023-03-05T01:29:10;0.40;99.90
6788;DHT22;3431;47.966;10.268;2023-03-05T01:29:32;0.40;99.90
6788;DHT22;3431;47.966;10.268;2023-03-05T01:29:53;0.40;99.90
6788;DHT22;3431;47.966;10.268;2023-03-05T01:30:16;0.40;99.90
6788;DHT22;3431;47.966;10.268;2023-03-05T01:30:37;0.40;99.90
6788;DHT22;3431;47.966;10.268;2023-03-05T01:30:59;0.40;99.90
6788;DHT22;3431;47.966;10.268;2023-03-05T01:31:21;0.40;99.90
6788;DHT22;3431;47.966;10.268;2023-03-05T01:31:43;0.40;99.90
6788;DHT22;3431;47.966;10.268;2023-03-05T01:32:05;0.40;99.90
6788;DHT22;3431;47.966;10.268;2023-03-05T01:32:26;0.30;99.90
6788;DHT22;3431;47.966;10.268;2023-03-05T01:32:48;0.30;99.90
6788;DHT22;3431;47.966;10.268;2023-03-05T01:33:10;0.40;99.90
6788;DHT22;3431;47.966;10.268;2023-03-05T01:33:32;0.40;99.90
6788;DHT22;3431;47.966;10.268;2023-03-05T01:33:54;0.30;99.90
6788;DHT22;3431;47.966;10.268;2023-03-05T01:34:16;0.40;99.90
6788;DHT22;3431;47.966;10.268;2023-03-05T01:34:38;0.40;99.90
6788;DHT22;3431;47.966;10.268;2023-03-05T01:35:04;0.40;99.90
6788;DHT22;3431;47.966;10.268;2023-03-05T01:35:27;0.40;99.90
6788;DHT22;3431;47.966;10.268;2023-03-05T01:35:49;0.40;99.90
6788;DHT22;3431;47.966;10.268;2023-03-05T01:36:15;0.30;99.90
6788;DHT22;3431;47.966;10.268;2023-03-05T01:36:39;0.30;99.90
6788;DHT22;3431;47.966;10.268;2023-03-05T01:37:01;0.40;99.90
6788;DHT22;3431;47.966;10.268;2023-03-05T01:37:22;0.40;99.90
6788;DHT22;3431;47.966;10.268;2023-03-05T01:37:44;0.40;99.90
6788;DHT22;3431;47.966;10.268;2023-03-05T01:38:06;0.40;99.90
6788;DHT22;3431;47.966;10.268;2023-03-05T01:38:30;0.30;99.90
6788;DHT22;3431;47.966;10.268;2023-03-05T01:38:51;0.30;99.90
6788;DHT22;3431;47.966;10.268;2023-03-05T01:39:13;0.30;99.90
6788;DHT22;3431;47.966;10.268;2023-03-05T01:39:34;0.30;99.90
6788;DHT22;3431;47.966;10.268;2023-03-05T01:39:57;0.30;99.90
6788;DHT22;3431;47.966;10.268;2023-03-05T01:40:20;0.30;99.90
6788;DHT22;3431;47.966;10.268;2023-03-05T01:40:42;0.30;99.90
6788;DHT22;3431;47.966;10.268;2023-03-05T01:41:04;0.20;99.90
6788;DHT22;3431;47.966;10.268;2023-03-05T01:41:26;0.20;99.90
6788;DHT22;3431;47.966;10.268;2023-03-05T01:41:48;0.20;99.90
6788;DHT22;3431;47.966;10.268;2023-03-05T01:42:10;0.20;99.90
6788;DHT22;3431;47.966;10.268;2023-03-05T01:42:32;0.20;99.90
6788;DHT22;3431;47.966;10.268;2023-03-05T01:42:59;0.20;99.90
6788;DHT22;3431;47.966;10.268;2023-03-05T01:43:24;0.20;99.90
6788;DHT22;3431;47.966;10.268;2023-03-05T01:43:47;0.10;99.90
6788;DHT22;3431;47.966;10.268;2023-03-05T01:44:19;0.20;99.90
6788;DHT22;3431;47.966;10.268;2023-03-05T01:44:59;0.10;99.90
6788;DHT22;3431;47.966;10.268;2023-03-05T01:45:23;0.10;99.90
6788;DHT22;3431;47.966;10.268;2023-03-05T01:46:56;0.00;99.90
6788;DHT22;3431;47.966;10.268;2023-03-05T01:47:17;0.00;99.90
6788;DHT22;3431;47.966;10.268;2023-03-05T01:47:39;0.00;99.90
6788;DHT22;3431;47.966;10.268;2023-03-05T01:48:00;-0.10;99.90
6788;DHT22;3431;47.966;10.268;2023-03-05T01:48:23;-0.10;99.90
6788;DHT22;3431;47.966;10.268;2023-03-05T01:48:49;-0.20;99.90
6788;DHT22;3431;47.966;10.268;2023-03-05T01:49:20;-0.20;99.90
6788;DHT22;3431;47.966;10.268;2023-03-05T01:49:43;-0.30;99.90
6788;DHT22;3431;47.966;10.268;2023-03-05T01:50:09;-0.30;99.90
6788;DHT22;3431;47.966;10.268;2023-03-05T01:50:33;-0.30;99.90
6788;DHT22;3431;47.966;10.268;2023-03-05T01:50:54;-0.30;99.90
6788;DHT22;3431;47.966;10.268;2023-03-05T01:51:16;-0.30;99.90
6788;DHT22;3431;47.966;10.268;2023-03-05T01:51:42;-0.40;99.90
6788;DHT22;3431;47.966;10.268;2023-03-05T01:52:07;-0.40;99.90
6788;DHT22;3431;47.966;10.268;2023-03-05T01:52:34;-0.40;99.90
6788;DHT22;3431;47.966;10.268;2023-03-05T01:52:59;-0.50;99.90
6788;DHT22;3431;47.966;10.268;2023-03-05T01:53:22;-0.50;99.90
6788;DHT22;3431;47.966;10.268;2023-03-05T01:53:44;-0.50;99.90
6788;DHT22;3431;47.966;10.268;2023-03-05T01:54:06;-0.60;99.90
6788;DHT22;3431;47.966;10.268;2023-03-05T01:54:32;-0.60;99.90
6788;DHT22;3431;47.966;10.268;2023-03-05T01:54:57;-0.60;99.90
6788;DHT22;3431;47.966;10.268;2023-03-05T01:55:22;-0.60;99.90
6788;DHT22;3431;47.966;10.268;2023-03-05T01:55:45;-0.60;99.90
6788;DHT22;3431;47.966;10.268;2023-03-05T01:56:07;-0.70;99.90
6788;DHT22;3431;47.966;10.268;2023-03-05T01:56:29;-0.70;99.90
6788;DHT22;3431;47.966;10.268;2023-03-05T01:56:53;-0.70;99.90
6788;DHT22;3431;47.966;10.268;2023-03-05T01:57:19;-0.70;99.90
6788;DHT22;3431;47.966;10.268;2023-03-05T01:57:44;-0.70;99.90
6788;DHT22;3431;47.966;10.268;2023-03-05T01:58:10;-0.70;99.90
6788;DHT22;3431;47.966;10.268;2023-03-05T01:58:33;-0.80;99.90
6788;DHT22;3431;47.966;10.268;2023-03-05T01:58:55;-0.80;99.90
6788;DHT22;3431;47.966;10.268;2023-03-05T01:59:24;-0.80;99.90
6788;DHT22;3431;47.966;10.268;2023-03-05T01:59:49;-0.80;99.90
6788;DHT22;3431;47.966;10.268;2023-03-05T02:00:14;-0.80;99.90
6788;DHT22;3431;47.966;10.268;2023-03-05T02:00:42;-0.80;99.90
6788;DHT22;3431;47.966;10.268;2023-03-05T02:01:04;-0.90;99.90
6788;DHT22;3431;47.966;10.268;2023-03-05T02:01:26;-0.90;99.90
6788;DHT22;3431;47.966;10.268;2023-03-05T02:01:50;-0.90;99.90
6788;DHT22;3431;47.966;10.268;2023-03-05T02:02:15;-0.90;99.90
6788;DHT22;3431;47.966;10.268;2023-03-05T02:02:38;-1.00;99.90
6788;DHT22;3431;47.966;10.268;2023-03-05T02:03:02;-0.90;99.90
6788;DHT22;3431;47.966;10.268;2023-03-05T02:03:26;-0.90;99.90
6788;DHT22;3431;47.966;10.268;2023-03-05T02:03:48;-0.90;99.90
6788;DHT22;3431;47.966;10.268;2023-03-05T02:04:13;-1.00;99.90
6788;DHT22;3431;47.966;10.268;2023-03-05T02:04:39;-1.00;99.90
6788;DHT22;3431;47.966;10.268;2023-03-05T02:05:04;-1.00;99.90
6788;DHT22;3431;47.966;10.268;2023-03-05T02:05:30;-1.00;99.90
6788;DHT22;3431;47.966;10.268;2023-03-05T02:05:52;-1.00;99.90
6788;DHT22;3431;47.966;10.268;2023-03-05T02:06:13;-1.00;99.90
6788;DHT22;3431;47.966;10.268;2023-03-05T02:06:36;-1.00;99.90
6788;DHT22;3431;47.966;10.268;2023-03-05T02:06:59;-1.00;99.90
6788;DHT22;3431;47.966;10.268;2023-03-05T02:07:21;-1.00;99.90
6788;DHT22;3431;47.966;10.268;2023-03-05T02:07:43;-1.00;99.90
6788;DHT22;3431;47.966;10.268;2023-03-05T02:08:07;-0.90;99.90
6788;DHT22;3431;47.966;10.268;2023-03-05T02:08:29;-1.00;99.90
6788;DHT22;3431;47.966;10.268;2023-03-05T02:08:51;-1.00;99.90
6788;DHT22;3431;47.966;10.268;2023-03-05T02:09:13;-1.00;99.90
6788;DHT22;3431;47.966;10.268;2023-03-05T02:09:37;-1.00;99.90
6788;DHT22;3431;47.966;10.268;2023-03-05T02:09:59;-1.00;99.90
6788;DHT22;3431;47.966;10.268;2023-03-05T02:10:45;-0.90;99.90
6788;DHT22;3431;47.966;10.268;2023-03-05T02:11:09;-0.90;99.90
6788;DHT22;3431;47.966;10.268;2023-03-05T02:11:31;-0.90;99.90
6788;DHT22;3431;47.966;10.268;2023-03-05T02:11:53;-0.90;99.90
6788;DHT22;3431;47.966;10.268;2023-03-05T02:12:15;-0.90;99.90
6788;DHT22;3431;47.966;10.268;2023-03-05T02:12:38;-0.90;99.90
6788;DHT22;3431;47.966;10.268;2023-03-05T02:13:05;-0.90;99.90
6788;DHT22;3431;47.966;10.268;2023-03-05T02:13:31;-0.90;99.90
6788;DHT22;3431;47.966;10.268;2023-03-05T02:13:53;-0.90;99.90
6788;DHT22;3431;47.966;10.268;2023-03-05T02:14:16;-0.90;99.90
6788;DHT22;3431;47.966;10.268;2023-03-05T02:14:38;-0.90;99.90
6788;DHT22;3431;47.966;10.268;2023-03-05T02:15:01;-1.00;99.90
6788;DHT22;3431;47.966;10.268;2023-03-05T02:15:24;-1.00;99.90
6788;DHT22;3431;47.966;10.268;2023-03-05T02:15:45;-0.90;99.90
6788;DHT22;3431;47.966;10.268;2023-03-05T02:16:08;-0.90;99.90
6788;DHT22;3431;47.966;10.268;2023-03-05T02:16:30;-0.90;99.90
6788;DHT22;3431;47.966;10.268;2023-03-05T02:16:57;-1.00;99.90
6788;DHT22;3431;47.966;10.268;2023-03-05T02:17:20;-1.00;99.90
6788;DHT22;3431;47.966;10.268;2023-03-05T02:17:41;-1.00;99.90
6788;DHT22;3431;47.966;10.268;2023-03-05T02:18:04;-1.00;99.90
6788;DHT22;3431;47.966;10.268;2023-03-05T02:18:26;-1.00;99.90
6788;DHT22;3431;47.966;10.268;2023-03-05T02:18:47;-1.00;99.90
6788;DHT22;3431;47.966;10.268;2023-03-05T02:19:11;-1.00;99.90
6788;DHT22;3431;47.966;10.268;2023-03-05T02:19:46;-0.90;99.90
6788;DHT22;3431;47.966;10.268;2023-03-05T02:20:11;-0.90;99.90
6788;DHT22;3431;47.966;10.268;2023-03-05T02:20:44;-0.90;99.90
6788;DHT22;3431;47.966;10.268;2023-03-05T02:21:08;-0.90;99.90
6788;DHT22;3431;47.966;10.268;2023-03-05T02:21:37;-0.90;99.90
6788;DHT22;3431;47.966;10.268;2023-03-05T02:21:58;-0.90;99.90
6788;DHT22;3431;47.966;10.268;2023-03-05T02:22:22;-0.90;99.90
6788;DHT22;3431;47.966;10.268;2023-03-05T02:22:44;-0.90;99.90
6788;DHT22;3431;47.966;10.268;2023-03-05T02:23:06;-0.90;99.90
6788;DHT22;3431;47.966;10.268;2023-03-05T02:23:30;-0.90;99.90
6788;DHT22;3431;47.966;10.268;2023-03-05T02:23:53;-0.80;99.90
6788;DHT22;3431;47.966;10.268;2023-03-05T02:24:17;-0.80;99.90
6788;DHT22;3431;47.966;10.268;2023-03-05T02:24:39;-0.80;99.90
6788;DHT22;3431;47.966;10.268;2023-03-05T02:25:11;-0.80;99.90
6788;DHT22;3431;47.966;10.268;2023-03-05T02:25:33;-0.70;99.90
6788;DHT22;3431;47.966;10.268;2023-03-05T02:25:56;-0.80;99.90
6788;DHT22;3431;47.966;10.268;2023-03-05T02:26:17;-0.70;99.90
6788;DHT22;3431;47.966;10.268;2023-03-05T02:26:40;-0.70;99.90
6788;DHT22;3431;47.966;10.268;2023-03-05T02:27:04;-0.70;99.90
6788;DHT22;3431;47.966;10.268;2023-03-05T02:27:30;-0.70;99.90
6788;DHT22;3431;47.966;10.268;2023-03-05T02:27:59;-0.70;99.90
6788;DHT22;3431;47.966;10.268;2023-03-05T02:28:25;-0.70;99.90
6788;DHT22;3431;47.966;10.268;2023-03-05T02:28:52;-0.60;99.90
6788;DHT22;3431;47.966;10.268;2023-03-05T02:29:17;-0.60;99.90
6788;DHT22;3431;47.966;10.268;2023-03-05T02:29:42;-0.60;99.90